createdAt,value
2023-01-15T00:01:55.436Z,100.00
2023-01-15T00:04:21.960Z,100.00
2023-01-15T00:06:48.536Z,100.00
2023-01-15T00:09:15.943Z,100.00
2023-01-15T00:11:42.511Z,100.00
2023-01-15T00:14:09.283Z,100.00
2023-01-15T00:16:35.837Z,100.00
2023-01-15T00:19:04.732Z,100.00
2023-01-15T00:21:31.924Z,100.00
2023-01-15T00:24:17.355Z,100.00
2023-01-15T00:27:02.805Z,100.00
2023-01-15T00:29:29.579Z,100.00
2023-01-15T00:32:05.133Z,100.00
2023-01-15T00:34:32.247Z,100.00
2023-01-15T00:36:59.597Z,100.00
2023-01-15T00:39:26.648Z,100.00
2023-01-15T00:41:53.136Z,100.00
2023-01-15T00:44:20.611Z,100.00
2023-01-15T00:46:47.703Z,100.00
2023-01-15T00:49:14.915Z,100.00
2023-01-15T00:51:41.728Z,100.00
2023-01-15T00:54:08.411Z,100.00
2023-01-15T00:56:35.172Z,100.00
2023-01-15T00:59:03.421Z,100.00
2023-01-15T01:01:30.071Z,100.00
2023-01-15T01:03:56.779Z,100.00
2023-01-15T01:06:23.671Z,100.00
2023-01-15T01:08:50.426Z,100.00
2023-01-15T01:11:19.886Z,100.00
2023-01-15T01:13:47.051Z,100.00
2023-01-15T01:16:26.382Z,100.00
2023-01-15T01:18:54.291Z,100.00
2023-01-15T01:21:21.825Z,100.00
2023-01-15T01:23:48.640Z,100.00
2023-01-15T01:26:15.373Z,100.00
2023-01-15T01:28:42.577Z,100.00
2023-01-15T01:31:09.700Z,100.00
2023-01-15T01:33:36.364Z,100.00
2023-01-15T01:36:03.730Z,100.00
2023-01-15T01:38:30.404Z,100.00
2023-01-15T01:40:57.150Z,100.00
2023-01-15T01:43:29.185Z,100.00
2023-01-15T01:45:56.271Z,100.00
2023-01-15T01:48:31.217Z,100.00
2023-01-15T01:51:02.214Z,100.00
2023-01-15T01:53:30.851Z,100.00
2023-01-15T01:55:59.911Z,100.00
2023-01-15T01:58:29.813Z,100.00
2023-01-15T02:00:57.017Z,100.00
2023-01-15T02:03:26.612Z,100.00
2023-01-15T02:05:57.006Z,100.00
2023-01-15T02:08:23.991Z,100.00
2023-01-15T02:10:54.289Z,100.00
2023-01-15T02:13:26.848Z,100.00
2023-01-15T02:16:19.919Z,100.00
2023-01-15T02:19:09.598Z,100.00
2023-01-15T02:22:11.302Z,100.00
2023-01-15T02:24:58.823Z,100.00
2023-01-15T02:27:26.694Z,100.00
2023-01-15T02:30:17.266Z,100.00
2023-01-15T02:33:00.061Z,100.00
2023-01-15T02:35:36.719Z,100.00
2023-01-15T02:38:08.352Z,100.00
2023-01-15T02:40:36.241Z,100.00
2023-01-15T02:43:05.248Z,100.00
2023-01-15T02:45:35.048Z,100.00
2023-01-15T02:48:08.646Z,100.00
2023-01-15T02:50:39.780Z,100.00
2023-01-15T02:53:12.529Z,100.00
2023-01-15T02:55:44.524Z,100.00
2023-01-15T02:58:18.332Z,100.00
2023-01-15T03:00:47.893Z,100.00
2023-01-15T03:03:24.203Z,100.00
2023-01-15T03:06:08.644Z,100.00
2023-01-15T03:08:35.826Z,100.00
2023-01-15T03:11:09.700Z,100.00
2023-01-15T03:13:54.987Z,100.00
2023-01-15T03:16:38.007Z,100.00
2023-01-15T03:19:13.508Z,100.00
2023-01-15T03:21:40.054Z,100.00
2023-01-15T03:24:10.504Z,100.00
2023-01-15T03:26:37.030Z,100.00
2023-01-15T03:29:06.078Z,100.00
2023-01-15T03:31:34.749Z,100.00
2023-01-15T03:34:01.882Z,100.00
2023-01-15T03:36:28.516Z,100.00
2023-01-15T03:38:56.090Z,100.00
2023-01-15T03:41:48.767Z,100.00
2023-01-15T03:44:21.313Z,100.00
2023-01-15T03:47:05.246Z,100.00
2023-01-15T03:49:38.515Z,100.00
2023-01-15T03:52:32.046Z,100.00
2023-01-15T03:55:22.598Z,100.00
2023-01-15T03:57:57.955Z,100.00
2023-01-15T04:00:34.147Z,100.00
2023-01-15T04:03:04.042Z,100.00
2023-01-15T04:05:32.355Z,100.00
2023-01-15T04:08:01.316Z,100.00
2023-01-15T04:10:27.864Z,100.00
2023-01-15T04:12:54.471Z,100.00
2023-01-15T04:15:21.135Z,100.00
2023-01-15T04:17:47.731Z,100.00
2023-01-15T04:20:14.246Z,100.00
2023-01-15T04:22:40.886Z,100.00
2023-01-15T04:25:08.112Z,100.00
2023-01-15T04:27:34.676Z,100.00
2023-01-15T04:30:01.338Z,100.00
2023-01-15T04:32:27.860Z,100.00
2023-01-15T04:34:54.426Z,100.00
2023-01-15T04:37:20.972Z,100.00
2023-01-15T04:39:47.568Z,100.00
2023-01-15T04:42:34.082Z,100.00
2023-01-15T04:45:00.667Z,100.00
2023-01-15T04:47:30.526Z,100.00
2023-01-15T04:49:57.073Z,100.00
2023-01-15T04:52:23.577Z,100.00
2023-01-15T04:54:50.153Z,100.00
2023-01-15T04:57:16.689Z,100.00
2023-01-15T04:59:43.291Z,100.00
2023-01-15T05:02:10.016Z,100.00
2023-01-15T05:04:36.811Z,100.00
2023-01-15T05:07:04.816Z,100.00
2023-01-15T05:09:31.790Z,100.00
2023-01-15T05:11:58.344Z,100.00
2023-01-15T05:14:24.889Z,100.00
2023-01-15T05:16:51.475Z,100.00
2023-01-15T05:19:18.097Z,100.00
2023-01-15T05:21:45.634Z,100.00
2023-01-15T05:24:17.263Z,100.00
2023-01-15T05:26:44.616Z,100.00
2023-01-15T05:29:13.767Z,100.00
2023-01-15T05:31:41.910Z,100.00
2023-01-15T05:34:10.181Z,100.00
2023-01-15T05:36:37.724Z,100.00
2023-01-15T05:39:05.005Z,100.00
2023-01-15T05:41:50.450Z,100.00
2023-01-15T05:44:21.955Z,100.00
2023-01-15T05:46:49.793Z,100.00
2023-01-15T05:49:20.270Z,100.00
2023-01-15T05:51:47.639Z,100.00
2023-01-15T05:54:15.347Z,100.00
2023-01-15T05:56:42.687Z,100.00
2023-01-15T05:59:09.327Z,100.00
2023-01-15T06:01:36.584Z,100.00
2023-01-15T06:04:03.978Z,100.00
2023-01-15T06:06:31.351Z,100.00
2023-01-15T06:08:57.791Z,100.00
2023-01-15T06:11:24.788Z,100.00
2023-01-15T06:13:51.859Z,100.00
2023-01-15T06:16:18.974Z,100.00
2023-01-15T06:18:46.233Z,100.00
2023-01-15T06:21:13.293Z,100.00
2023-01-15T06:23:40.918Z,100.00
2023-01-15T06:26:13.568Z,100.00
2023-01-15T06:28:40.633Z,100.00
2023-01-15T06:31:08.752Z,100.00
2023-01-15T06:33:35.584Z,100.00
2023-01-15T06:36:08.575Z,100.00
2023-01-15T06:38:35.247Z,100.00
2023-01-15T06:41:03.425Z,100.00
2023-01-15T06:43:48.789Z,100.00
2023-01-15T06:46:36.066Z,100.00
2023-01-15T06:49:02.770Z,100.00
2023-01-15T06:51:31.151Z,100.00
2023-01-15T06:53:57.941Z,100.00
2023-01-15T06:56:24.487Z,100.00
2023-01-15T06:58:51.090Z,100.00
2023-01-15T07:01:17.678Z,100.00
2023-01-15T07:03:44.479Z,100.00
2023-01-15T07:06:13.483Z,100.00
2023-01-15T07:08:40.925Z,100.00
2023-01-15T07:11:09.289Z,100.00
2023-01-15T07:13:36.709Z,100.00
2023-01-15T07:16:04.861Z,100.00
2023-01-15T07:18:33.551Z,100.00
2023-01-15T07:21:01.009Z,100.00
2023-01-15T07:23:28.355Z,100.00
2023-01-15T07:25:55.292Z,100.00
2023-01-15T07:28:23.255Z,100.00
2023-01-15T07:30:49.820Z,100.00
2023-01-15T07:33:16.441Z,100.00
2023-01-15T07:35:43.080Z,100.00
2023-01-15T07:38:09.625Z,100.00
2023-01-15T07:40:36.823Z,100.00
2023-01-15T07:43:21.597Z,100.00
2023-01-15T07:46:06.840Z,100.00
2023-01-15T07:48:51.839Z,100.00
2023-01-15T07:51:18.453Z,100.00
2023-01-15T07:53:44.980Z,100.00
2023-01-15T07:56:11.608Z,100.00
2023-01-15T07:58:38.155Z,100.00
2023-01-15T08:01:04.757Z,100.00
2023-01-15T08:03:31.385Z,100.00
2023-01-15T08:05:57.912Z,100.00
2023-01-15T08:08:24.444Z,100.00
2023-01-15T08:11:09.365Z,100.00
2023-01-15T08:13:54.194Z,100.00
2023-01-15T08:16:20.828Z,100.00
2023-01-15T08:18:47.519Z,99.83
2023-01-15T08:21:15.926Z,100.00
2023-01-15T08:23:43.485Z,100.00
2023-01-15T08:26:10.008Z,98.88
2023-01-15T08:28:36.597Z,99.67
2023-01-15T08:31:06.063Z,98.99
2023-01-15T08:33:33.277Z,98.73
2023-01-15T08:35:59.823Z,98.05
2023-01-15T08:38:26.492Z,98.00
2023-01-15T08:41:00.017Z,96.51
2023-01-15T08:43:28.059Z,95.05
2023-01-15T08:45:59.388Z,92.47
2023-01-15T08:48:27.843Z,92.37
2023-01-15T08:50:54.518Z,92.80
2023-01-15T08:53:21.168Z,92.13
2023-01-15T08:55:48.734Z,90.21
2023-01-15T08:58:17.702Z,86.43
2023-01-15T09:00:44.557Z,83.52
2023-01-15T09:03:11.255Z,82.96
2023-01-15T09:05:38.294Z,74.71
2023-01-15T09:08:06.562Z,62.89
2023-01-15T09:10:34.239Z,54.66
2023-01-15T09:13:04.821Z,47.20
2023-01-15T09:15:33.437Z,44.97
2023-01-15T09:18:00.672Z,44.23
2023-01-15T09:20:27.463Z,43.81
2023-01-15T09:22:53.998Z,43.95
2023-01-15T09:25:23.929Z,42.73
2023-01-15T09:27:50.731Z,42.63
2023-01-15T09:30:20.828Z,42.92
2023-01-15T09:32:48.617Z,43.42
2023-01-15T09:35:15.828Z,46.01
2023-01-15T09:37:42.632Z,49.05
2023-01-15T09:40:29.148Z,51.88
2023-01-15T09:43:05.042Z,54.55
2023-01-15T09:45:39.953Z,55.59
2023-01-15T09:48:19.435Z,57.67
2023-01-15T09:51:18.512Z,58.94
2023-01-15T09:54:12.700Z,59.25
2023-01-15T09:56:39.635Z,60.53
2023-01-15T09:59:22.593Z,60.21
2023-01-15T10:01:51.678Z,61.92
2023-01-15T10:04:43.661Z,63.38
2023-01-15T10:07:18.711Z,61.18
2023-01-15T10:09:51.737Z,59.78
2023-01-15T10:12:35.390Z,61.18
2023-01-15T10:15:14.359Z,60.21
2023-01-15T10:17:42.441Z,60.78
2023-01-15T10:20:34.783Z,61.34
2023-01-15T10:23:01.261Z,61.43
2023-01-15T10:25:39.756Z,61.05
2023-01-15T10:28:20.099Z,61.25
2023-01-15T10:30:57.186Z,60.57
2023-01-15T10:33:51.704Z,62.27
2023-01-15T10:36:21.510Z,61.98
2023-01-15T10:39:08.295Z,61.53
2023-01-15T10:41:48.704Z,60.98
2023-01-15T10:44:19.567Z,60.51
2023-01-15T10:46:55.092Z,60.83
2023-01-15T10:49:22.491Z,58.99
2023-01-15T10:52:28.031Z,58.38
2023-01-15T10:55:18.348Z,60.25
2023-01-15T10:58:10.099Z,60.42
2023-01-15T11:00:39.057Z,61.40
2023-01-15T11:03:15.125Z,62.50
2023-01-15T11:05:42.702Z,62.31
2023-01-15T11:08:58.368Z,63.22
2023-01-15T11:11:16.446Z,62.50
2023-01-15T11:14:14.353Z,61.69
2023-01-15T11:17:01.711Z,63.20
2023-01-15T11:19:42.653Z,63.62
2023-01-15T11:22:16.129Z,62.10
2023-01-15T11:24:55.197Z,59.20
2023-01-15T11:27:33.342Z,60.13
2023-01-15T11:30:01.921Z,59.02
2023-01-15T11:32:34.309Z,58.61
2023-01-15T11:35:22.514Z,58.14
2023-01-15T11:37:49.158Z,58.17
2023-01-15T11:40:23.315Z,58.49
2023-01-15T11:43:10.085Z,57.55
2023-01-15T11:46:11.595Z,57.67
2023-01-15T11:49:04.938Z,57.30
2023-01-15T11:51:44.258Z,58.14
2023-01-15T11:54:13.612Z,57.83
2023-01-15T11:56:45.750Z,58.47
2023-01-15T11:59:15.604Z,57.47
2023-01-15T12:02:00.268Z,57.58
2023-01-15T12:04:45.309Z,57.40
2023-01-15T12:07:14.182Z,57.61
2023-01-15T12:10:05.977Z,58.21
2023-01-15T12:12:57.099Z,58.22
2023-01-15T12:15:44.213Z,57.55
2023-01-15T12:18:44.324Z,58.37
2023-01-15T12:21:13.845Z,57.56
2023-01-15T12:23:54.513Z,57.98
2023-01-15T12:26:38.679Z,56.31
2023-01-15T12:29:27.386Z,55.92
2023-01-15T12:32:05.017Z,56.33
2023-01-15T12:34:48.099Z,56.25
2023-01-15T12:37:22.677Z,57.08
2023-01-15T12:39:56.187Z,57.32
2023-01-15T12:42:43.574Z,57.01
2023-01-15T12:45:21.985Z,57.01
2023-01-15T12:48:06.951Z,56.95
2023-01-15T12:50:45.073Z,56.67
2023-01-15T12:53:11.739Z,56.18
2023-01-15T12:55:43.393Z,55.50
2023-01-15T12:58:44.297Z,56.26
2023-01-15T13:01:30.157Z,56.17
2023-01-15T13:04:05.037Z,56.30
2023-01-15T13:06:32.840Z,56.33
2023-01-15T13:09:10.296Z,55.77
2023-01-15T13:11:37.109Z,55.29
2023-01-15T13:14:03.759Z,56.14
2023-01-15T13:16:45.886Z,54.90
2023-01-15T13:19:30.822Z,55.25
2023-01-15T13:22:03.028Z,55.40
2023-01-15T13:24:47.514Z,55.10
2023-01-15T13:27:27.390Z,54.78
2023-01-15T13:30:11.841Z,54.75
2023-01-15T13:32:50.127Z,55.34
2023-01-15T13:35:45.996Z,54.87
2023-01-15T13:38:19.199Z,55.42
2023-01-15T13:40:52.000Z,54.30
2023-01-15T13:43:34.506Z,54.66
2023-01-15T13:46:04.438Z,55.12
2023-01-15T13:48:57.917Z,54.65
2023-01-15T13:51:30.511Z,55.85
2023-01-15T13:53:59.902Z,56.57
2023-01-15T13:56:29.659Z,56.17
2023-01-15T13:58:59.242Z,56.86
2023-01-15T14:01:34.185Z,57.33
2023-01-15T14:04:00.823Z,57.23
2023-01-15T14:06:46.638Z,57.72
2023-01-15T14:09:22.334Z,57.46
2023-01-15T14:11:55.111Z,57.75
2023-01-15T14:14:40.456Z,58.63
2023-01-15T14:17:28.520Z,60.12
2023-01-15T14:20:30.685Z,60.75
2023-01-15T14:23:23.088Z,60.58
2023-01-15T14:26:19.068Z,59.99
2023-01-15T14:29:30.557Z,59.58
2023-01-15T14:32:35.783Z,59.64
2023-01-15T14:35:03.236Z,60.88
2023-01-15T14:37:39.596Z,60.28
2023-01-15T14:40:07.315Z,60.64
2023-01-15T14:42:59.803Z,61.12
2023-01-15T14:45:29.205Z,60.44
2023-01-15T14:47:58.317Z,60.20
2023-01-15T14:50:28.100Z,60.40
2023-01-15T14:52:59.512Z,60.67
2023-01-15T14:55:26.895Z,60.00
2023-01-15T14:58:05.145Z,60.39
2023-01-15T15:00:37.458Z,60.64
2023-01-15T15:03:14.557Z,59.93
2023-01-15T15:05:44.241Z,61.29
2023-01-15T15:08:14.938Z,60.95
2023-01-15T15:10:44.671Z,61.14
2023-01-15T15:13:27.988Z,61.20
2023-01-15T15:16:13.758Z,61.29
2023-01-15T15:19:00.390Z,61.73
2023-01-15T15:21:36.679Z,62.33
2023-01-15T15:24:12.551Z,62.42
2023-01-15T15:26:40.336Z,62.25
2023-01-15T15:29:17.030Z,62.57
2023-01-15T15:31:53.645Z,62.49
2023-01-15T15:34:29.708Z,63.25
2023-01-15T15:37:01.355Z,63.17
2023-01-15T15:39:53.699Z,63.59
2023-01-15T15:43:04.227Z,63.84
2023-01-15T15:45:50.259Z,65.08
2023-01-15T15:48:41.030Z,65.82
2023-01-15T15:51:31.882Z,66.66
2023-01-15T15:54:04.545Z,66.98
2023-01-15T15:56:33.321Z,67.35
2023-01-15T15:59:00.411Z,66.71
2023-01-15T16:01:27.458Z,66.72
2023-01-15T16:03:55.312Z,67.01
2023-01-15T16:06:25.898Z,66.73
2023-01-15T16:08:55.288Z,67.15
2023-01-15T16:11:25.212Z,68.05
2023-01-15T16:13:53.915Z,68.44
2023-01-15T16:16:21.746Z,68.18
2023-01-15T16:18:53.208Z,68.68
2023-01-15T16:21:26.379Z,69.16
2023-01-15T16:24:02.538Z,69.75
2023-01-15T16:26:47.959Z,69.67
2023-01-15T16:29:24.710Z,70.31
2023-01-15T16:31:51.950Z,70.17
2023-01-15T16:34:22.111Z,71.39
2023-01-15T16:36:49.073Z,71.91
2023-01-15T16:39:45.566Z,72.14
2023-01-15T16:42:29.731Z,72.81
2023-01-15T16:45:01.686Z,74.26
2023-01-15T16:47:31.874Z,74.88
2023-01-15T16:50:24.520Z,74.98
2023-01-15T16:52:55.977Z,75.79
2023-01-15T16:55:46.227Z,77.08
2023-01-15T16:58:12.943Z,77.44
2023-01-15T17:00:45.080Z,78.50
2023-01-15T17:03:20.360Z,78.76
2023-01-15T17:05:50.842Z,78.85
2023-01-15T17:08:20.757Z,79.70
2023-01-15T17:11:00.271Z,79.46
2023-01-15T17:13:35.746Z,79.94
2023-01-15T17:16:06.383Z,80.22
2023-01-15T17:18:33.758Z,80.40
2023-01-15T17:21:01.089Z,80.54
2023-01-15T17:23:30.225Z,80.64
2023-01-15T17:25:58.140Z,80.34
2023-01-15T17:28:25.912Z,80.51
2023-01-15T17:30:57.861Z,80.63
2023-01-15T17:33:24.564Z,80.26
2023-01-15T17:35:53.570Z,80.30
2023-01-15T17:38:20.312Z,80.13
2023-01-15T17:40:46.917Z,79.89
2023-01-15T17:43:15.027Z,80.29
2023-01-15T17:45:42.312Z,80.77
2023-01-15T17:48:09.980Z,81.38
2023-01-15T17:50:37.602Z,82.36
2023-01-15T17:53:05.818Z,82.67
2023-01-15T17:55:51.376Z,82.96
2023-01-15T17:58:36.502Z,83.35
2023-01-15T18:01:29.639Z,83.98
2023-01-15T18:04:19.376Z,84.16
2023-01-15T18:06:51.355Z,85.54
2023-01-15T18:09:21.592Z,85.75
2023-01-15T18:11:48.363Z,86.04
2023-01-15T18:14:15.019Z,87.02
2023-01-15T18:16:41.738Z,87.75
2023-01-15T18:19:08.469Z,88.60
2023-01-15T18:21:38.536Z,89.56
2023-01-15T18:24:06.042Z,89.56
2023-01-15T18:26:36.610Z,89.56
2023-01-15T18:29:04.302Z,89.71
2023-01-15T18:31:31.400Z,91.35
2023-01-15T18:33:58.079Z,92.41
2023-01-15T18:36:24.734Z,92.95
2023-01-15T18:38:51.435Z,95.20
2023-01-15T18:41:36.565Z,95.06
2023-01-15T18:44:21.459Z,94.88
2023-01-15T18:46:52.588Z,96.23
2023-01-15T18:49:19.973Z,96.93
2023-01-15T18:52:05.172Z,96.51
2023-01-15T18:54:31.751Z,96.53
2023-01-15T18:56:58.381Z,98.19
2023-01-15T18:59:25.012Z,99.03
2023-01-15T19:01:52.244Z,99.96
2023-01-15T19:04:20.370Z,100.00
2023-01-15T19:06:47.674Z,98.42
2023-01-15T19:09:16.416Z,98.19
2023-01-15T19:11:44.268Z,97.13
2023-01-15T19:14:29.584Z,98.22
2023-01-15T19:17:14.528Z,98.30
2023-01-15T19:19:43.350Z,98.00
2023-01-15T19:22:29.645Z,98.63
2023-01-15T19:24:56.568Z,99.08
2023-01-15T19:27:23.748Z,98.51
2023-01-15T19:29:50.636Z,98.47
2023-01-15T19:32:17.260Z,98.67
2023-01-15T19:34:43.846Z,98.44
2023-01-15T19:37:10.402Z,98.42
2023-01-15T19:39:36.991Z,99.29
2023-01-15T19:42:21.961Z,99.81
2023-01-15T19:45:06.783Z,100.00
2023-01-15T19:47:55.316Z,100.00
2023-01-15T19:50:42.860Z,100.00
2023-01-15T19:53:10.673Z,100.00
2023-01-15T19:55:40.403Z,100.00
2023-01-15T19:58:10.120Z,100.00
2023-01-15T20:00:38.512Z,100.00
2023-01-15T20:03:06.256Z,100.00
2023-01-15T20:05:33.178Z,100.00
2023-01-15T20:07:59.742Z,100.00
2023-01-15T20:10:28.698Z,100.00
2023-01-15T20:13:13.776Z,100.00
2023-01-15T20:15:42.749Z,100.00
2023-01-15T20:18:09.502Z,100.00
2023-01-15T20:20:37.255Z,100.00
2023-01-15T20:23:04.235Z,100.00
2023-01-15T20:25:31.158Z,100.00
2023-01-15T20:27:59.995Z,100.00
2023-01-15T20:30:27.559Z,100.00
2023-01-15T20:32:56.527Z,100.00
2023-01-15T20:35:31.143Z,100.00
2023-01-15T20:37:57.889Z,100.00
2023-01-15T20:40:25.605Z,100.00
2023-01-15T20:43:12.082Z,100.00
2023-01-15T20:45:39.674Z,100.00
2023-01-15T20:48:12.649Z,100.00
2023-01-15T20:51:02.718Z,100.00
2023-01-15T20:53:34.602Z,100.00
2023-01-15T20:56:02.868Z,100.00
2023-01-15T20:58:29.604Z,100.00
2023-01-15T21:01:03.418Z,100.00
2023-01-15T21:03:30.074Z,100.00
2023-01-15T21:05:57.887Z,100.00
2023-01-15T21:08:24.853Z,100.00
2023-01-15T21:10:52.871Z,100.00
2023-01-15T21:13:22.733Z,100.00
2023-01-15T21:15:58.231Z,100.00
2023-01-15T21:18:26.963Z,100.00
2023-01-15T21:20:53.740Z,100.00
2023-01-15T21:23:20.804Z,100.00
2023-01-15T21:25:47.381Z,100.00
2023-01-15T21:28:14.388Z,100.00
2023-01-15T21:30:44.288Z,100.00
2023-01-15T21:33:11.404Z,100.00
2023-01-15T21:35:41.460Z,100.00
2023-01-15T21:38:08.914Z,100.00
2023-01-15T21:40:39.199Z,100.00
2023-01-15T21:43:25.030Z,100.00
2023-01-15T21:45:52.098Z,100.00
2023-01-15T21:48:18.952Z,100.00
2023-01-15T21:50:45.583Z,100.00
2023-01-15T21:53:12.143Z,100.00
2023-01-15T21:55:38.823Z,100.00
2023-01-15T21:58:05.381Z,100.00
2023-01-15T22:00:31.975Z,100.00
2023-01-15T22:02:58.674Z,100.00
2023-01-15T22:05:25.457Z,100.00
2023-01-15T22:07:52.146Z,100.00
2023-01-15T22:10:18.811Z,100.00
2023-01-15T22:12:45.355Z,100.00
2023-01-15T22:15:12.249Z,100.00
2023-01-15T22:17:38.976Z,100.00
2023-01-15T22:20:07.158Z,100.00
2023-01-15T22:22:36.544Z,100.00
2023-01-15T22:25:05.125Z,100.00
2023-01-15T22:27:34.614Z,100.00
2023-01-15T22:30:01.405Z,100.00
2023-01-15T22:32:28.022Z,100.00
2023-01-15T22:34:54.633Z,100.00
2023-01-15T22:37:21.186Z,100.00
2023-01-15T22:39:47.822Z,100.00
2023-01-15T22:42:31.211Z,100.00
2023-01-15T22:44:59.824Z,100.00
2023-01-15T22:47:29.302Z,100.00
2023-01-15T22:49:56.087Z,100.00
2023-01-15T22:52:25.381Z,100.00
2023-01-15T22:54:52.140Z,100.00
2023-01-15T22:57:18.720Z,100.00
2023-01-15T22:59:45.544Z,100.00
2023-01-15T23:02:12.934Z,100.00
2023-01-15T23:04:39.621Z,100.00
2023-01-15T23:07:06.209Z,100.00
2023-01-15T23:09:32.757Z,100.00
2023-01-15T23:11:59.323Z,100.00
2023-01-15T23:14:25.873Z,100.00
2023-01-15T23:16:52.755Z,100.00
2023-01-15T23:19:20.337Z,100.00
2023-01-15T23:21:47.083Z,100.00
2023-01-15T23:24:13.734Z,100.00
2023-01-15T23:26:40.387Z,100.00
2023-01-15T23:29:07.113Z,100.00
2023-01-15T23:31:33.794Z,100.00
2023-01-15T23:34:00.385Z,100.00
2023-01-15T23:36:27.361Z,100.00
2023-01-15T23:38:54.237Z,100.00
2023-01-15T23:41:41.882Z,100.00
2023-01-15T23:44:35.690Z,100.00
2023-01-15T23:47:02.243Z,100.00
2023-01-15T23:49:28.891Z,100.00
2023-01-15T23:51:55.965Z,100.00
2023-01-15T23:54:25.302Z,100.00
2023-01-15T23:56:51.854Z,100.00
2023-01-15T23:59:18.491Z,100.00
